ADDS METAR Data INFO
IDs: Format: Raw Decoded Include TAF

Data at: 0312 UTC 22 Apr 2018

KABI 220252Z 01009KT 10SM CLR 13/08 A3010 RMK AO2 SLP182 T01280083 53031
KABI 220152Z 01012KT 10SM CLR 14/09 A3006 RMK AO2 SLP169 T01390089
KABI 220052Z 01015G23KT 10SM CLR 15/09 A3004 RMK AO2 PK WND 01026/2355 SLP160 T01500089
KABI 212352Z 36019G27KT 10SM SCT075 17/09 A3000 RMK AO2 PK WND 35027/2347 SLP148 60002 T01720089 10278 20161 51041
KABI 212252Z 01015KT 10SM FEW031 SCT100 18/12 A2997 RMK AO2 PK WND 35034/2203 LTG DSNT S RAB18E39 SLP135 TS W MOVE E P0002 T01780117
KABI 212152Z 01021G29KT 10SM CLR 22/11 A2991 RMK AO2 PK WND 35030/2059 SLP114 T02220106
KABI 212052Z 36023G33KT 10SM SCT070 SCT095 23/12 A2987 RMK AO2 PK WND 35033/2049 WSHFT 1941 SLP099 T02280122 53006
KABI 212001Z 31018G28KT 10SM SCT100 27/08 A2986 RMK AO2 PK WND 33028/1955 WSHFT 1941 T02670078
KABI 211952Z 34017G24KT 10SM FEW095 27/09 A2985 RMK AO2 PK WND 26027/1857 SLP087 T02670094
KABI 211852Z 27021G27KT 10SM CLR 28/04 A2984 RMK AO2 PK WND 28031/1828 SLP084 T02780039
KABI 211752Z 23016G24KT 10SM CLR 26/10 A2985 RMK AO2 PK WND 19029/1723 SLP089 60000 T02560100 10256 20128 58020
KABI 211652Z 19016G23KT 10SM CLR 22/13 A2989 RMK AO2 PK WND 18030/1602 SLP101 T02220133
KABI 211610Z 20018G30KT 10SM FEW018 21/14 A2990 RMK AO2 PK WND 18030/1602 T02060144
KABI 211552Z 19017G23KT 10SM BKN016 19/14 A2991 RMK AO2 PK WND 19028/1510 SLP113 T01940144
KABI 211542Z 20018G24KT 10SM BKN016 18/14 A2991 RMK AO2 PK WND 19028/1510 T01780139
KABI 211515Z 18018G28KT 10SM BKN012 17/14 A2991 RMK AO2 PK WND 19028/1510 T01670139
KABI 211452Z 17012KT 10SM OVC008 14/13 A2992 RMK AO2 RAE1354 SLP118 P0000 60000 T01440133 50002
KABI 211352Z 16012KT 7SM -RA OVC009 13/12 A2993 RMK AO2 RAB17 SLP123 P0000 T01280122
KABI 211327Z 15009KT 9SM -RA OVC009 13/12 A2995 RMK AO2 RAB17 P0000 T01280117
KABI 211252Z 16010KT 10SM OVC010 13/11 A2995 RMK AO2 SLP126 T01280111
KABI 211152Z 15012KT 10SM BKN013 OVC021 13/11 A2991 RMK AO2 SLP114 T01280106 10150 20128 55004
KABI 211107Z 16016KT 10SM FEW016 SCT023 OVC029 13/11 A2990 RMK AO2 T01330106
KABI 211052Z 16016G22KT 10SM OVC030 13/11 A2990 RMK AO2 PK WND 16029/1013 SLP110 T01330106
KABI 210952Z 16013G25KT 10SM FEW020 SCT034 OVC085 13/10 A2991 RMK AO2 PK WND 16033/0910 LTG DSNT N SLP114 T01330100
KABI 210918Z 16024G33KT 10SM SCT019 SCT030 OVC080 13/10 A2989 RMK AO2 PK WND 16033/0910 T01330100
KABI 210852Z 16022G28KT 10SM OVC019 14/10 A2993 RMK AO2 PK WND 15028/0852 LTG DSNT W SLP117 T01390100 58018
KABI 210752Z 15014KT 10SM OVC021 14/10 A2996 RMK AO2 SLP129 T01390100
KABI 210652Z 16015KT 10SM OVC023 15/11 A2999 RMK AO2 SLP140 T01500106
KABI 210552Z 16009KT 10SM OVC025 16/10 A2998 RMK AO2 SLP137 T01560100 10200 20156 402220083 51019
KABI 210452Z 15014G22KT 10SM OVC026 16/09 A2996 RMK AO2 PK WND 14027/0415 PRESRR SLP131 T01610089
KABI 210402Z 15016G25KT 10SM OVC029 16/08 A2994 RMK AO2 T01610083
KABI 210352Z 15021G26KT 10SM OVC031 16/08 A2995 RMK AO2 PK WND 16032/0255 SLP126 T01610083
KABI 210252Z 15023G31KT 10SM SCT041 BKN049 17/08 A2992 RMK AO2 PK WND 15037/0211 SLP119 T01670083 58002
KABI 210152Z 15020G34KT 10SM OVC038 18/08 A2995 RMK AO2 PK WND 14035/0103 SLP128 T01780078
KABI 210052Z 15019G33KT 10SM OVC050 19/07 A2993 RMK AO2 PK WND 16035/0040 SLP122 T01890067
KABI 202352Z 15025G33KT 10SM OVC055 20/06 A2993 RMK AO2 PK WND 14034/2253 SLP123 T02000061 10222 20183 56028
KABI 202252Z 14027G32KT 10SM OVC055 21/07 A2996 RMK AO2 PK WND 14032/2248 SLP132 T02060072
KABI 202152Z 16021G28KT 10SM BKN055 20/07 A2998 RMK AO2 PK WND 16031/2102 SLP141 T02000072
KABI 202052Z 14017G28KT 10SM OVC049 21/07 A3002 RMK AO2 PK WND 13030/2032 SLP151 T02060067 58035
KABI 201952Z 14021G29KT 10SM OVC055 21/06 A3005 RMK AO2 PK WND 14030/1858 SLP163 T02060061
KABI 201852Z 14020G27KT 10SM FEW047 OVC060 19/05 A3010 RMK AO2 PK WND 13030/1831 SLP180 T01940050
KABI 201752Z 13025G30KT 10SM BKN047 OVC065 18/04 A3013 RMK AO2 PK WND 14030/1752 SLP190 T01830044 10183 20083 58018
KABI 201652Z 14018G28KT 10SM FEW050 OVC070 18/04 A3016 RMK AO2 PK WND 12028/1608 SLP200 T01780044
KABI 201552Z 13022G27KT 10SM OVC070 16/04 A3018 RMK AO2 PK WND 13028/1527 SLP207 T01610039